Decoded Metar for KGFA (GREAT FALLS in MT, USA) (IATA:N/A) | Meteo·Mobile Aviation Weather
aviador You're here:

KGFA Decoded Metar

GREAT FALLS in MT, USA
Report Time2019-07-24 02:58:00
UTC Time2019-07-24 04:28:47
Flight Rules Old
Wind040° at 05 kt
Visibility9999 m
Phenomena:N/A
Clouds:Broken 110 Hf
Expected CloudBase > 4,400 ft AGL from Temp-Dew spread
Ceiling11,000 ft
Temp24°C (ISA +16)
Dew Point13°C (50% RH)
AAT23.1°C
QNH1018 hPa
Density Alt5,410 ft
Elevation3,527 ft
Report Wrong Elevation
Raw Report
METAR KGFA 240258Z AUTO 04005KT 10SM BKN110 24/13 A3005 RMK AO2
SLP153 T02360133 52016 $=

Extra information for KGFA:More info

Metar Taf Metar & Taf Last 4 Metars F.Rules Stats Wind Profile Meteogram Temp Stats Airport Information Weather charts Add Link Nearby VenuesMetar ALERT Operation Metar Decoded Social comments

AIRNAV info for KGFA